• Join FlightAware (Why Join?)
  • Login
  • US Flag 
03:53AM EST


 

Airport Tracker/Info


-or-


 

Live Flight TrackerFlight Track Log ✈ BOE5 ✈ 03-Jun-2013 ✈ KBFI - KMWH

Flight Track Log - Related Links

Times and Time Zones

All times are in EDT time to prevent confusion due to time zone crossing. See the BOE5 flight status page for this flight to view local times or setup timezone preferences in your user account.

Time Position Orientation Groundspeed Altitude Reporting Facility
EDT Latitude Longitude Course Direction KTS MPH feet Rate Location/Type
01:00PM 47.5172 -122.2914 148° Southeast 163 188 1,100  Level Seattle Center
01:00PM 47.4908 -122.2667 148° Southeast 186 214 2,400 2,460 Climbing Seattle Center
01:01PM 47.4469 -122.1989 134° Southeast 253 291 5,100 1,740 Climbing Seattle Center
01:02PM 47.4797 -122.1183 59° Northeast 249 287 6,000 420 Climbing Seattle Center
01:03PM 47.5319 -122.0697 32° Northeast 243 280 6,000  Level Seattle Center
01:04PM 47.5939 -122.0944 345° North 240 276 6,000  Level Seattle Center
01:05PM 47.6164 -122.1375 308° West 248 285 6,000  Level Seattle Center
01:05PM 47.6397 -122.1872 305° West 247 284 6,000  Level Seattle Center
01:06PM 47.6542 -122.2203 303° West 246 283 6,000  Level Seattle Center
01:06PM 47.6828 -122.2786 306° West 246 283 6,000  Level Seattle Center
01:07PM 47.6936 -122.3017 305° West 245 282 6,000  Level Seattle Center
01:07PM 47.7314 -122.3472 321° Northwest 243 280 6,000  Level Seattle Center
01:08PM 47.7486 -122.3442 North 248 285 6,000  Level Seattle Center
01:08PM 47.8050 -122.3228 14° North 244 281 6,000  Level Seattle Center
01:09PM 47.8253 -122.3122 19° North 245 282 6,000  Level Seattle Center
01:10PM 47.8833 -122.2911 14° North 245 282 6,000  Level Seattle Center
01:11PM 47.9447 -122.2908 360° North 224 258 6,000 -60 Level Seattle Center
01:12PM 48.0106 -122.3114 348° North 218 251 5,900 -540 Descending Seattle Center
01:13PM 48.0528 -122.3464 331° Northwest 205 236 5,000 -720 Descending Seattle Center
01:14PM 48.0706 -122.4292 288° West 214 246 4,500 -300 Descending Seattle Center
01:15PM 48.0939 -122.5294 289° West 215 247 4,500 -60 Level Seattle Center
01:16PM 48.1203 -122.6078 297° West 215 247 4,400 -480 Descending Seattle Center
01:17PM 48.1422 -122.6828 294° West 199 229 3,600 -960 Descending Seattle Center
01:18PM 48.1500 -122.7483 280° West 165 190 2,500 -540 Descending Seattle Center
01:19PM 48.1572 -122.8197 279° West 158 182 2,500  Level Seattle Center
01:20PM 48.1567 -122.8867 269° West 159 183 2,500  Level Seattle Center
01:21PM 48.1558 -122.9536 269° West 168 193 2,500  Level Seattle Center
01:22PM 48.1958 -122.9861 332° Northwest 183 211 2,500 60 Level Seattle Center
01:24PM 48.1589 -123.0933 243° Southwest 162 186 2,800 240 Climbing Seattle Center
01:25PM 48.1461 -123.0378 109° East 157 181 3,400 480 Climbing Seattle Center
01:26PM 48.1472 -122.9889 88° East 173 199 3,900 540 Climbing Seattle Center
01:27PM 48.1797 -123.0314 319° Northwest 167 192 4,600 540 Climbing Seattle Center
01:28PM 48.2214 -123.0539 340° North 160 184 5,100 480 Climbing Seattle Center
01:29PM 48.2653 -123.1022 324° Northwest 167 192 5,600 780 Climbing Seattle Center
01:30PM 48.2989 -123.1656 309° West 194 223 6,800 2,280 Climbing Seattle Center
01:31PM 48.2531 -123.2336 225° Southwest 250 288 10,300 2,580 Climbing Seattle Center
01:32PM 48.1894 -123.1628 143° Southeast 322 371 12,100 1,980 Climbing Seattle Center
01:33PM 48.1528 -123.0136 110° East 386 444 14,400 2,580 Climbing Seattle Center
01:34PM 48.1208 -122.8575 107° East 393 452 17,400 1,500 Climbing Seattle Center
01:35PM 48.1222 -122.7200 89° East 342 394 17,500 240 Climbing Seattle Center
01:36PM 48.1917 -122.6358 39° Northeast 325 374 17,900 1,020 Climbing Seattle Center
01:37PM 48.2750 -122.5367 38° Northeast 323 372 19,600 900 Climbing Seattle Center
01:38PM 48.3339 -122.4594 41° Northeast 295 339 19,800 180 Climbing Seattle Center
01:39PM 48.3528 -122.3325 77° East 330 380 20,000 60 Climbing Seattle Center
01:40PM 48.3097 -122.1992 116° Southeast 353 406 20,000  Level Seattle Center
01:41PM 48.2683 -122.0689 115° Southeast 349 402 20,000  Level Seattle Center
01:42PM 48.2169 -121.9114 116° Southeast 413 475 20,000 -300 Level Seattle Center
01:43PM 48.1594 -121.7333 116° Southeast 468 539 19,500 -540 Descending Seattle Center
01:44PM 48.1033 -121.5611 116° Southeast 467 537 19,000 -300 Descending Seattle Center
01:45PM 48.0472 -121.3903 116° Southeast 463 533 19,000  Level Seattle Center
01:46PM 47.9833 -121.1828 115° Southeast 463 533 19,000 -240 Level Seattle Center
01:47PM 47.9783 -120.9981 92° East 450 518 18,600 -660 Descending Seattle Center
01:48PM 47.9714 -120.8097 93° East 441 507 17,700 -840 Descending Seattle Center
01:49PM 47.9333 -120.6489 109° East 430 495 17,000 -780 Descending Seattle Center
01:50PM 47.8542 -120.5197 132° Southeast 427 491 16,200 -1,200 Descending Seattle Center
01:51PM 47.7742 -120.3956 134° Southeast 407 468 14,600 -1,740 Descending Seattle Center
01:52PM 47.6761 -120.2986 146° Southeast 391 450 12,700 -1,740 Descending Seattle Center
01:54PM 47.5889 -120.2111 146° Southeast 380 437 11,100 -1,380 Descending Seattle Center
01:55PM 47.5067 -120.1333 147° Southeast 353 406 9,900 -1,380 Descending Seattle Center
01:56PM 47.4467 -120.0408 134° Southeast 290 334 8,400 -1,260 Descending Seattle Center
01:57PM 47.3942 -119.9528 131° Southeast 287 330 7,400 -480 Descending Seattle Center
01:58PM 47.3436 -119.8650 130° Southeast 282 325 7,500 -180 Climbing Seattle Center
01:59PM 47.2925 -119.7781 131° Southeast 281 323 7,100 -720 Descending Seattle Center
02:00PM 47.2417 -119.6842 129° Southeast 275 316 6,100 -720 Descending Seattle Center
02:01PM 47.2039 -119.5939 122° Southeast 264 304 5,700 -540 Descending Seattle Center
02:02PM 47.1714 -119.5131 121° Southeast 235 270 5,100 -780 Descending Seattle Center
02:03PM 47.1389 -119.4353 122° Southeast 212 244 4,200 -960 Descending Seattle Center
02:04PM 47.1264 -119.3603 104° East 192 221 3,200 -1,020 Descending Seattle Center
02:05PM 47.1467 -119.3039 62° Northeast 163 188 2,200 -1,020 Descending Seattle Center
02:06PM 47.1917 -119.3100 355° North 156 180 1,200 -600 Descending Seattle Center
02:07PM 47.2300 -119.3292 341° North 156 180 1,100 -120 Descending Seattle Center
02:09PM 47.2086 -119.3191 180° South  Level Estimated
02:16PM 47.2086 -119.3191 180° South  Level Estimated
02:17PM 47.2086 -119.3191 180° South  Level Estimated
02:18PM 47.2086 -119.3191 180° South  Level Estimated